Terminal Aerodrome Forecast
Issued by NWS

Home | Current Version | Previous Version | Text Only | Print | Product List | Glossary On
Versions: 1 2 3 4 5 6 7 8 9 10 11 12 13 14 15
000
FTUS41 KCLE 291850 AAA
TAFFDY
TAF AMD
KFDY 291850Z 2919/3018 18005KT P6SM VCTS SCT050CB BKN090
      TEMPO 2919/2923 5SM -SHRA BKN040
     FM300700 16002KT 4SM BR VCSH BKN040 OVC080
     FM301500 22005KT 6SM HZ VCSH BKN040=

USA.gov is the U.S. government's official web portal to all federal, state and local government web resources and services.